createdAt,value
2017-07-18T00:00:39.185Z,14.21
2017-07-18T00:01:49.048Z,14.12
2017-07-18T00:02:59.222Z,14.14
2017-07-18T00:04:08.753Z,14.1
2017-07-18T00:05:18.435Z,13.99
2017-07-18T00:06:27.645Z,14.07
2017-07-18T00:07:37.832Z,14
2017-07-18T00:08:48.024Z,14
2017-07-18T00:09:57.229Z,13.92
2017-07-18T00:11:06.541Z,13.92
2017-07-18T00:12:16.077Z,13.88
2017-07-18T00:13:25.325Z,13.92
2017-07-18T00:14:34.861Z,13.92
2017-07-18T00:15:44.715Z,13.91
2017-07-18T00:16:54.248Z,13.85
2017-07-18T00:18:03.140Z,13.89
2017-07-18T00:19:13.324Z,13.89
2017-07-18T00:20:23.178Z,13.91
2017-07-18T00:21:32.714Z,13.91
2017-07-18T00:22:42.029Z,13.89
2017-07-18T00:23:51.898Z,13.88
2017-07-18T00:25:01.127Z,13.91
2017-07-18T00:26:10.670Z,13.84
2017-07-18T00:27:20.221Z,13.92
2017-07-18T00:28:29.541Z,13.79
2017-07-18T00:29:39.722Z,13.87
2017-07-18T00:30:48.665Z,13.79
2017-07-18T00:31:58.194Z,13.82
2017-07-18T00:33:07.401Z,13.78
2017-07-18T00:34:17.559Z,13.75
2017-07-18T00:35:27.104Z,13.78
2017-07-18T00:36:36.315Z,13.71
2017-07-18T00:37:45.550Z,13.75
2017-07-18T00:38:55.407Z,13.75
2017-07-18T00:40:04.724Z,13.73
2017-07-18T00:41:14.299Z,13.7
2017-07-18T00:42:24.158Z,13.69
2017-07-18T00:43:34.034Z,13.66
2017-07-18T00:44:43.586Z,13.67
2017-07-18T00:45:53.766Z,13.64
2017-07-18T00:47:02.970Z,13.55
2017-07-18T00:48:11.865Z,13.62
2017-07-18T00:49:21.736Z,13.51
2017-07-18T00:50:31.284Z,13.52
2017-07-18T00:51:41.141Z,13.59
2017-07-18T00:52:50.347Z,13.6
2017-07-18T00:53:59.554Z,13.51
2017-07-18T00:55:08.439Z,13.54
2017-07-18T00:56:18.624Z,13.54
2017-07-18T00:57:28.308Z,13.52
2017-07-18T00:58:37.847Z,13.55
2017-07-18T00:59:47.381Z,13.41
2017-07-18T01:00:56.593Z,13.57
2017-07-18T01:02:06.457Z,13.49
2017-07-18T01:03:16.360Z,13.55
2017-07-18T01:04:25.252Z,13.59
2017-07-18T01:05:35.125Z,13.62
2017-07-18T01:06:44.659Z,13.54
2017-07-18T01:07:53.870Z,13.46
2017-07-18T01:09:03.078Z,13.44
2017-07-18T01:10:12.612Z,13.45
2017-07-18T01:11:22.466Z,13.44
2017-07-18T01:12:32.655Z,13.45
2017-07-18T01:13:42.511Z,13.45
2017-07-18T01:14:52.097Z,13.45
2017-07-18T01:16:02.276Z,13.39
2017-07-18T01:17:11.487Z,13.29
2017-07-18T01:18:20.700Z,13.38
2017-07-18T01:19:30.235Z,13.28
2017-07-18T01:20:39.828Z,13.38
2017-07-18T01:21:49.395Z,13.3
2017-07-18T01:22:58.602Z,13.33
2017-07-18T01:24:08.152Z,13.29
2017-07-18T01:25:17.704Z,13.26
2017-07-18T01:26:27.564Z,13.32
2017-07-18T01:27:37.096Z,13.29
2017-07-18T01:28:46.303Z,13.19
2017-07-18T01:29:55.842Z,13.19
2017-07-18T01:31:05.374Z,13.12
2017-07-18T01:32:15.707Z,13.15
2017-07-18T01:33:25.268Z,13.19
2017-07-18T01:34:34.477Z,13.14
2017-07-18T01:35:44.335Z,13.05
2017-07-18T01:36:53.550Z,13.12
2017-07-18T01:38:03.079Z,13.1
2017-07-18T01:39:12.612Z,13.03
2017-07-18T01:40:22.143Z,13
2017-07-18T01:41:32.003Z,13
2017-07-18T01:42:41.538Z,13.01
2017-07-18T01:43:51.380Z,13.01
2017-07-18T01:45:00.587Z,13
2017-07-18T01:46:10.446Z,13
2017-07-18T01:47:20.327Z,12.95
2017-07-18T01:48:29.219Z,12.97
2017-07-18T01:49:38.628Z,12.95
2017-07-18T01:50:48.163Z,12.95
2017-07-18T01:51:57.707Z,12.95
2017-07-18T01:53:06.916Z,12.92
2017-07-18T01:54:16.463Z,12.85
2017-07-18T01:55:26.654Z,12.89
2017-07-18T01:56:36.515Z,12.9
2017-07-18T01:57:46.052Z,12.79
2017-07-18T01:58:55.261Z,12.85
2017-07-18T02:00:04.157Z,12.85
2017-07-18T02:01:14.552Z,12.83
2017-07-18T02:02:24.414Z,12.92
2017-07-18T02:03:33.955Z,12.79
2017-07-18T02:04:43.162Z,12.78
2017-07-18T02:05:53.021Z,12.85
2017-07-18T02:07:02.699Z,12.79
2017-07-18T02:08:12.557Z,12.83
2017-07-18T02:09:21.769Z,12.78
2017-07-18T02:10:31.305Z,12.78
2017-07-18T02:11:40.526Z,12.65
2017-07-18T02:12:49.800Z,12.64
2017-07-18T02:13:58.697Z,12.67
2017-07-18T02:15:08.561Z,12.65
2017-07-18T02:16:18.424Z,12.7
2017-07-18T02:17:28.605Z,12.72
2017-07-18T02:18:38.616Z,12.67
2017-07-18T02:19:48.158Z,12.7
2017-07-18T02:20:58.351Z,12.68
2017-07-18T02:22:07.588Z,12.68
2017-07-18T02:23:17.772Z,12.7
2017-07-18T02:24:27.633Z,12.68
2017-07-18T02:25:37.495Z,12.67
2017-07-18T02:26:47.034Z,12.62
2017-07-18T02:27:56.243Z,12.68
2017-07-18T02:29:05.771Z,12.56
2017-07-18T02:30:15.089Z,12.52
2017-07-18T02:31:24.634Z,12.53
2017-07-18T02:32:34.491Z,12.62
2017-07-18T02:33:44.674Z,12.6
2017-07-18T02:34:54.208Z,12.57
2017-07-18T02:36:03.843Z,12.56
2017-07-18T02:37:13.712Z,12.54
2017-07-18T02:38:23.577Z,12.53
2017-07-18T02:39:33.474Z,12.5
2017-07-18T02:40:43.669Z,12.49
2017-07-18T02:41:53.256Z,12.53
2017-07-18T02:43:03.113Z,12.49
2017-07-18T02:44:12.985Z,12.53
2017-07-18T02:45:22.847Z,12.49
2017-07-18T02:46:32.723Z,12.46
2017-07-18T02:47:43.002Z,12.42
2017-07-18T02:48:52.553Z,12.37
2017-07-18T02:50:02.417Z,12.42
2017-07-18T02:51:11.657Z,12.39
2017-07-18T02:52:20.555Z,12.41
2017-07-18T02:53:30.564Z,12.46
2017-07-18T02:54:39.772Z,12.38
2017-07-18T02:55:49.623Z,12.34
2017-07-18T02:56:59.160Z,12.38
2017-07-18T02:58:09.024Z,12.38
2017-07-18T02:59:18.943Z,12.42
2017-07-18T03:00:28.804Z,12.41
2017-07-18T03:01:38.666Z,12.29
2017-07-18T03:02:47.885Z,12.34
2017-07-18T03:03:57.738Z,12.32
2017-07-18T03:05:07.654Z,12.29
2017-07-18T03:06:16.863Z,12.27
2017-07-18T03:07:26.401Z,12.29
2017-07-18T03:08:35.934Z,12.31
2017-07-18T03:09:45.793Z,12.21
2017-07-18T03:10:55.166Z,12.32
2017-07-18T03:12:05.045Z,12.29
2017-07-18T03:13:14.583Z,12.28
2017-07-18T03:14:23.790Z,12.21
2017-07-18T03:15:33.984Z,12.27
2017-07-18T03:16:43.668Z,12.27
2017-07-18T03:17:53.214Z,12.31
2017-07-18T03:19:03.089Z,12.31
2017-07-18T03:20:12.623Z,12.32
2017-07-18T03:21:22.486Z,12.31
2017-07-18T03:22:32.069Z,12.27
2017-07-18T03:23:41.936Z,12.23
2017-07-18T03:24:51.146Z,12.24
2017-07-18T03:26:00.358Z,12.29
2017-07-18T03:27:09.896Z,12.24
2017-07-18T03:28:19.507Z,12.24
2017-07-18T03:29:29.686Z,12.24
2017-07-18T03:30:39.222Z,12.23
2017-07-18T03:31:49.404Z,12.28
2017-07-18T03:32:58.617Z,12.19
2017-07-18T03:34:08.811Z,12.32
2017-07-18T03:35:17.700Z,12.31
2017-07-18T03:36:27.878Z,12.28
2017-07-18T03:37:38.067Z,12.29
2017-07-18T03:38:47.283Z,12.27
2017-07-18T03:39:56.969Z,12.29
2017-07-18T03:41:06.510Z,12.29
2017-07-18T03:42:16.375Z,12.27
2017-07-18T03:43:26.232Z,12.21
2017-07-18T03:44:36.118Z,12.17
2017-07-18T03:45:46.301Z,12.19
2017-07-18T03:46:56.486Z,12.17
2017-07-18T03:48:06.351Z,12.19
2017-07-18T03:49:16.210Z,12.17
2017-07-18T03:50:25.423Z,12.19
2017-07-18T03:51:34.637Z,12.16
2017-07-18T03:52:44.496Z,12.14
2017-07-18T03:53:54.352Z,12.1
2017-07-18T03:55:04.544Z,12.16
2017-07-18T03:56:14.414Z,12.17
2017-07-18T03:57:24.445Z,12.09
2017-07-18T03:58:33.660Z,12.13
2017-07-18T03:59:43.521Z,12.2
2017-07-18T04:00:53.717Z,12.27
2017-07-18T04:02:03.264Z,12.28
2017-07-18T04:03:12.729Z,12.21
2017-07-18T04:04:22.605Z,12.19
2017-07-18T04:05:32.461Z,12.23
2017-07-18T04:06:42.646Z,12.28
2017-07-18T04:07:52.186Z,12.24
2017-07-18T04:09:02.576Z,12.31
2017-07-18T04:10:12.450Z,12.24
2017-07-18T04:11:22.634Z,12.28
2017-07-18T04:12:32.495Z,12.29
2017-07-18T04:13:42.678Z,12.28
2017-07-18T04:14:52.366Z,12.28
2017-07-18T04:16:02.229Z,12.24
2017-07-18T04:17:12.093Z,12.38
2017-07-18T04:18:21.308Z,12.29
2017-07-18T04:19:30.519Z,12.39
2017-07-18T04:20:40.253Z,12.39
2017-07-18T04:21:49.790Z,12.38
2017-07-18T04:22:59.008Z,12.41
2017-07-18T04:24:08.877Z,12.47
2017-07-18T04:25:18.429Z,12.47
2017-07-18T04:26:28.339Z,12.46
2017-07-18T04:27:38.528Z,12.49
2017-07-18T04:28:47.744Z,12.53
2017-07-18T04:29:57.606Z,12.47
2017-07-18T04:31:07.480Z,12.49
2017-07-18T04:32:17.211Z,12.57
2017-07-18T04:33:27.086Z,12.56
2017-07-18T04:34:37.595Z,12.62
2017-07-18T04:35:47.777Z,12.62
2017-07-18T04:36:57.653Z,12.52
2017-07-18T04:38:07.778Z,12.57
2017-07-18T04:39:17.330Z,12.62
2017-07-18T04:40:26.541Z,12.71
2017-07-18T04:41:36.396Z,12.7
2017-07-18T04:42:46.253Z,12.67
2017-07-18T04:43:56.158Z,12.68
2017-07-18T04:45:06.020Z,12.79
2017-07-18T04:46:15.554Z,12.79
2017-07-18T04:47:25.741Z,12.77
2017-07-18T04:48:35.613Z,12.78
2017-07-18T04:49:45.949Z,12.82
2017-07-18T04:50:55.500Z,12.78
2017-07-18T04:52:05.366Z,12.87
2017-07-18T04:53:15.550Z,12.85
2017-07-18T04:54:24.445Z,12.85
2017-07-18T04:55:34.785Z,12.89
2017-07-18T04:56:44.970Z,12.93
2017-07-18T04:57:54.845Z,12.86
2017-07-18T04:59:05.035Z,12.93
2017-07-18T05:00:14.923Z,12.93
2017-07-18T05:01:24.144Z,12.97
2017-07-18T05:02:33.681Z,13.07
2017-07-18T05:03:43.237Z,13.01
2017-07-18T05:04:52.775Z,13.17
2017-07-18T05:06:02.966Z,13.14
2017-07-18T05:07:12.611Z,13.05
2017-07-18T05:08:22.151Z,13.1
2017-07-18T05:09:31.681Z,13.15
2017-07-18T05:10:40.580Z,13.14
2017-07-18T05:11:50.438Z,13.12
2017-07-18T05:12:59.876Z,13.26
2017-07-18T05:14:10.072Z,13.36
2017-07-18T05:15:19.944Z,13.33
2017-07-18T05:16:29.478Z,13.3
2017-07-18T05:17:39.026Z,13.36
2017-07-18T05:18:48.709Z,13.33
2017-07-18T05:19:58.260Z,13.39
2017-07-18T05:21:08.452Z,13.45
2017-07-18T05:22:17.989Z,13.51
2017-07-18T05:23:27.854Z,13.45
2017-07-18T05:24:36.797Z,13.46
2017-07-18T05:25:46.332Z,13.59
2017-07-18T05:26:55.865Z,13.48
2017-07-18T05:28:06.052Z,13.48
2017-07-18T05:29:15.603Z,13.54
2017-07-18T05:30:25.186Z,13.49
2017-07-18T05:31:35.046Z,13.57
2017-07-18T05:32:44.598Z,13.62
2017-07-18T05:33:54.154Z,13.63
2017-07-18T05:35:03.363Z,13.63
2017-07-18T05:36:12.894Z,13.67
2017-07-18T05:37:22.100Z,13.67
2017-07-18T05:38:31.635Z,13.73
2017-07-18T05:39:40.521Z,13.69
2017-07-18T05:40:50.061Z,13.73
2017-07-18T05:41:59.895Z,13.92
2017-07-18T05:43:09.444Z,13.85
2017-07-18T05:44:18.980Z,14.02
2017-07-18T05:45:28.233Z,14.03
2017-07-18T05:46:38.096Z,14.02
2017-07-18T05:47:47.784Z,14.14
2017-07-18T05:48:56.991Z,14.14
2017-07-18T05:50:06.533Z,14.22
2017-07-18T05:51:16.067Z,14.2
2017-07-18T05:52:25.277Z,14.17
2017-07-18T05:53:34.814Z,14.2
2017-07-18T05:54:44.698Z,14.25
2017-07-18T05:55:54.230Z,14.25
2017-07-18T05:57:03.444Z,14.29
2017-07-18T05:58:13.318Z,14.35
2017-07-18T05:59:22.527Z,14.32
2017-07-18T06:00:32.063Z,14.37
2017-07-18T06:01:41.923Z,14.46
2017-07-18T06:02:50.833Z,14.42
2017-07-18T06:04:01.067Z,14.42
2017-07-18T06:05:10.611Z,14.52
2017-07-18T06:06:19.831Z,14.46
2017-07-18T06:07:29.686Z,14.5
2017-07-18T06:08:38.901Z,14.54
2017-07-18T06:09:48.123Z,14.57
2017-07-18T06:10:58.302Z,14.51
2017-07-18T06:12:08.486Z,14.64
2017-07-18T06:13:18.041Z,14.73
2017-07-18T06:14:27.908Z,14.65
2017-07-18T06:15:37.765Z,14.69
2017-07-18T06:16:47.304Z,14.65
2017-07-18T06:17:56.847Z,14.75
2017-07-18T06:19:06.690Z,14.77
2017-07-18T06:20:15.923Z,14.83
2017-07-18T06:21:25.798Z,14.81
2017-07-18T06:22:35.355Z,14.86
2017-07-18T06:23:44.570Z,14.98
2017-07-18T06:24:54.411Z,15.03
2017-07-18T06:26:03.631Z,15.11
2017-07-18T06:27:13.496Z,15.14
2017-07-18T06:28:23.071Z,15.09
2017-07-18T06:29:32.945Z,15.13
2017-07-18T06:30:42.785Z,15.25
2017-07-18T06:31:52.648Z,15.29
2017-07-18T06:33:02.186Z,15.27
2017-07-18T06:34:12.056Z,15.25
2017-07-18T06:35:21.915Z,15.38
2017-07-18T06:36:31.833Z,15.28
2017-07-18T06:37:41.691Z,15.39
2017-07-18T06:38:51.227Z,15.43
2017-07-18T06:40:00.773Z,15.57
2017-07-18T06:41:10.642Z,15.56
2017-07-18T06:42:19.917Z,15.62
2017-07-18T06:43:29.802Z,15.69
2017-07-18T06:44:39.025Z,15.67
2017-07-18T06:45:49.205Z,15.65
2017-07-18T06:46:58.743Z,15.64
2017-07-18T06:48:08.390Z,15.69
2017-07-18T06:49:18.327Z,15.65
2017-07-18T06:50:27.804Z,15.8
2017-07-18T06:51:37.675Z,15.82
2017-07-18T06:52:46.565Z,15.82
2017-07-18T06:53:56.284Z,15.84
2017-07-18T06:55:06.173Z,15.89
2017-07-18T06:56:16.056Z,16
2017-07-18T06:57:25.593Z,15.93
2017-07-18T06:58:35.492Z,15.92
2017-07-18T06:59:45.515Z,16.02
2017-07-18T07:00:55.377Z,16.01
2017-07-18T07:02:05.891Z,16.05
2017-07-18T07:03:15.451Z,16.07
2017-07-18T07:04:24.670Z,16.11
2017-07-18T07:05:34.745Z,16.15
2017-07-18T07:06:44.613Z,16.25
2017-07-18T07:07:53.825Z,16.12
2017-07-18T07:09:03.365Z,16.23
2017-07-18T07:10:13.232Z,16.2
2017-07-18T07:11:23.154Z,16.21
2017-07-18T07:12:32.379Z,16.12
2017-07-18T07:13:41.600Z,16.23
2017-07-18T07:14:51.146Z,16.27
2017-07-18T07:16:00.612Z,16.3
2017-07-18T07:17:09.992Z,16.42
2017-07-18T07:18:19.542Z,16.48
2017-07-18T07:19:28.760Z,16.46
2017-07-18T07:20:37.974Z,16.48
2017-07-18T07:21:48.174Z,16.48
2017-07-18T07:22:58.034Z,16.57
2017-07-18T07:24:07.911Z,16.57
2017-07-18T07:25:17.778Z,16.71
2017-07-18T07:26:26.677Z,16.71
2017-07-18T07:27:35.900Z,16.76
2017-07-18T07:28:45.127Z,16.78
2017-07-18T07:29:54.682Z,16.83
2017-07-18T07:31:04.226Z,16.83
2017-07-18T07:32:13.785Z,16.85
2017-07-18T07:33:22.678Z,16.93
2017-07-18T07:34:32.169Z,16.93
2017-07-18T07:35:41.712Z,16.98
2017-07-18T07:36:51.578Z,16.98
2017-07-18T07:38:01.149Z,17.03
2017-07-18T07:39:11.029Z,17.07
2017-07-18T07:40:20.902Z,17.15
2017-07-18T07:41:30.442Z,17.18
2017-07-18T07:42:39.990Z,17.08
2017-07-18T07:43:49.652Z,17.19
2017-07-18T07:44:58.880Z,17.18
2017-07-18T07:46:08.152Z,17.25
2017-07-18T07:47:17.365Z,17.3
2017-07-18T07:48:26.905Z,17.31
2017-07-18T07:49:36.123Z,17.46
2017-07-18T07:50:45.338Z,17.55
2017-07-18T07:51:55.173Z,17.62
2017-07-18T07:53:05.370Z,17.55
2017-07-18T07:54:14.903Z,17.66
2017-07-18T07:55:24.453Z,17.59
2017-07-18T07:56:33.371Z,17.68
2017-07-18T07:57:42.640Z,17.71
2017-07-18T07:58:51.859Z,17.74
2017-07-18T08:00:02.049Z,17.79
2017-07-18T08:01:12.240Z,17.79
2017-07-18T08:02:21.778Z,17.75
2017-07-18T08:03:31.100Z,17.79
2017-07-18T08:04:40.331Z,17.86
2017-07-18T08:05:49.541Z,17.9
2017-07-18T08:06:58.429Z,17.89
2017-07-18T08:08:07.981Z,17.89
2017-07-18T08:09:17.347Z,17.99
2017-07-18T08:10:27.525Z,18.05
2017-07-18T08:11:37.059Z,18.15
2017-07-18T08:12:46.594Z,18.14
2017-07-18T08:13:56.455Z,18.25
2017-07-18T08:15:05.822Z,18.27
2017-07-18T08:16:14.708Z,18.26
2017-07-18T08:17:24.243Z,18.21
2017-07-18T08:18:34.135Z,18.14
2017-07-18T08:19:44.005Z,18.18
2017-07-18T08:20:53.478Z,18.15
2017-07-18T08:22:03.667Z,18.32
2017-07-18T08:23:12.901Z,18.27
2017-07-18T08:24:21.796Z,18.27
2017-07-18T08:25:31.346Z,18.32
2017-07-18T08:26:40.663Z,18.36
2017-07-18T08:27:50.204Z,18.37
2017-07-18T08:28:59.416Z,18.37
2017-07-18T08:30:08.628Z,18.36
2017-07-18T08:31:18.203Z,18.45
2017-07-18T08:32:27.916Z,18.41
2017-07-18T08:33:37.452Z,18.6
2017-07-18T08:34:46.670Z,18.57
2017-07-18T08:35:55.885Z,18.58
2017-07-18T08:37:05.424Z,18.55
2017-07-18T08:38:15.132Z,18.62
2017-07-18T08:39:24.350Z,18.58
2017-07-18T08:40:33.620Z,18.63
2017-07-18T08:41:43.480Z,18.69
2017-07-18T08:42:53.159Z,18.75
2017-07-18T08:44:02.909Z,18.81
2017-07-18T08:45:12.767Z,18.8
2017-07-18T08:46:21.660Z,18.87
2017-07-18T08:47:31.592Z,18.82
2017-07-18T08:48:40.811Z,18.81
2017-07-18T08:49:50.203Z,18.87
2017-07-18T08:50:59.755Z,18.88
2017-07-18T08:52:09.634Z,18.85
2017-07-18T08:53:19.207Z,18.88
2017-07-18T08:54:28.472Z,18.92
2017-07-18T08:55:38.486Z,19
2017-07-18T08:56:47.707Z,19.02
2017-07-18T08:57:57.291Z,19.08
2017-07-18T08:59:06.555Z,19.11
2017-07-18T09:00:15.451Z,19.06
2017-07-18T09:01:25.198Z,19.16
2017-07-18T09:02:34.204Z,19.16
2017-07-18T09:03:43.430Z,19.19
2017-07-18T09:04:52.672Z,19.18
2017-07-18T09:06:02.249Z,19.28
2017-07-18T09:07:11.971Z,19.31
2017-07-18T09:08:21.222Z,19.41
2017-07-18T09:09:30.110Z,19.39
2017-07-18T09:10:39.331Z,19.41
2017-07-18T09:11:49.217Z,19.4
2017-07-18T09:12:58.713Z,19.44
2017-07-18T09:14:08.584Z,19.39
2017-07-18T09:15:17.807Z,19.47
2017-07-18T09:16:26.701Z,19.55
2017-07-18T09:17:36.111Z,19.73
2017-07-18T09:18:45.484Z,19.77
2017-07-18T09:19:54.404Z,19.86
2017-07-18T09:21:03.664Z,19.96
2017-07-18T09:22:12.916Z,19.99
2017-07-18T09:23:22.138Z,19.88
2017-07-18T09:24:32.160Z,19.86
2017-07-18T09:25:42.322Z,19.95
2017-07-18T09:26:51.601Z,19.87
2017-07-18T09:28:00.821Z,19.88
2017-07-18T09:29:10.747Z,19.84
2017-07-18T09:30:20.061Z,19.92
2017-07-18T09:31:29.647Z,19.88
2017-07-18T09:32:39.178Z,19.96
2017-07-18T09:33:49.113Z,19.96
2017-07-18T09:34:58.054Z,20.01
2017-07-18T09:36:07.459Z,20.06
2017-07-18T09:37:16.674Z,20.06
2017-07-18T09:38:26.211Z,20.18
2017-07-18T09:39:35.813Z,20.21
2017-07-18T09:40:45.674Z,20.18
2017-07-18T09:41:54.615Z,20.21
2017-07-18T09:43:04.478Z,20.18
2017-07-18T09:44:14.014Z,20.11
2017-07-18T09:45:23.566Z,20.08
2017-07-18T09:46:33.428Z,19.99
2017-07-18T09:47:43.119Z,20.05
2017-07-18T09:48:52.354Z,20.02
2017-07-18T09:50:01.969Z,20.06
2017-07-18T09:51:11.506Z,20.05
2017-07-18T09:52:21.160Z,19.98
2017-07-18T09:53:30.784Z,20.05
2017-07-18T09:54:40.019Z,20.02
2017-07-18T09:55:49.232Z,19.96
2017-07-18T09:56:59.099Z,19.98
2017-07-18T09:58:08.311Z,20.02
2017-07-18T09:59:17.899Z,20.11
2017-07-18T10:00:28.090Z,20.06
2017-07-18T10:01:36.898Z,19.94
2017-07-18T10:02:46.443Z,19.96
2017-07-18T10:03:55.340Z,19.88
2017-07-18T10:05:05.347Z,20.05
2017-07-18T10:06:14.891Z,20.05
2017-07-18T10:07:24.104Z,20.11
2017-07-18T10:08:33.016Z,20.16
2017-07-18T10:09:41.907Z,20.24
2017-07-18T10:10:51.420Z,20.32
2017-07-18T10:12:00.963Z,20.31
2017-07-18T10:13:10.814Z,20.36
2017-07-18T10:14:20.352Z,20.26
2017-07-18T10:15:29.893Z,20.47
2017-07-18T10:16:39.918Z,20.36
2017-07-18T10:17:49.134Z,20.42
2017-07-18T10:18:58.346Z,20.48
2017-07-18T10:20:07.243Z,20.5
2017-07-18T10:21:16.781Z,20.32
2017-07-18T10:22:25.822Z,20.36
2017-07-18T10:23:35.045Z,20.38
2017-07-18T10:24:44.904Z,20.5
2017-07-18T10:25:54.439Z,20.58
2017-07-18T10:27:03.989Z,20.66
2017-07-18T10:28:13.449Z,20.7
2017-07-18T10:29:22.334Z,20.7
2017-07-18T10:30:31.544Z,20.74
2017-07-18T10:31:40.800Z,20.82
2017-07-18T10:32:50.660Z,20.77
2017-07-18T10:34:00.323Z,20.82
2017-07-18T10:35:10.179Z,20.73
2017-07-18T10:36:19.401Z,20.73
2017-07-18T10:37:28.612Z,20.8
2017-07-18T10:38:38.469Z,20.94
2017-07-18T10:39:48.105Z,20.91
2017-07-18T10:40:57.324Z,20.92
2017-07-18T10:42:06.750Z,20.98
2017-07-18T10:43:16.284Z,20.98
2017-07-18T10:44:25.505Z,20.94
2017-07-18T10:45:34.717Z,20.97
2017-07-18T10:46:44.291Z,21.04
2017-07-18T10:47:53.829Z,21.1
2017-07-18T10:49:03.082Z,21.14
2017-07-18T10:50:11.988Z,21.21
2017-07-18T10:51:21.766Z,21.31
2017-07-18T10:52:31.328Z,21.24
2017-07-18T10:53:41.044Z,21.24
2017-07-18T10:54:50.522Z,21.31
2017-07-18T10:56:00.067Z,21.32
2017-07-18T10:57:09.617Z,21.35
2017-07-18T10:58:18.903Z,21.43
2017-07-18T10:59:27.801Z,21.5
2017-07-18T11:00:37.350Z,21.53
2017-07-18T11:01:46.313Z,21.64
2017-07-18T11:02:55.259Z,21.69
2017-07-18T11:04:04.490Z,21.74
2017-07-18T11:05:14.065Z,21.79
2017-07-18T11:06:23.293Z,21.75
2017-07-18T11:07:32.526Z,21.77
2017-07-18T11:08:42.572Z,21.88
2017-07-18T11:09:51.796Z,21.8
2017-07-18T11:11:01.363Z,21.75
2017-07-18T11:12:10.579Z,21.86
2017-07-18T11:13:19.517Z,21.9
2017-07-18T11:14:29.421Z,21.98
2017-07-18T11:15:39.059Z,21.96
2017-07-18T11:16:48.598Z,22.02
2017-07-18T11:17:57.813Z,21.99
2017-07-18T11:19:07.352Z,22.03
2017-07-18T11:20:16.500Z,22.12
2017-07-18T11:21:25.729Z,22.2
2017-07-18T11:22:35.589Z,22.22
2017-07-18T11:23:45.143Z,22.3
2017-07-18T11:24:54.031Z,22.37
2017-07-18T11:26:03.665Z,22.31
2017-07-18T11:27:12.887Z,22.14
2017-07-18T11:28:22.097Z,22.15
2017-07-18T11:29:30.989Z,22.24
2017-07-18T11:30:40.209Z,22.3
2017-07-18T11:31:49.249Z,22.45
2017-07-18T11:32:59.129Z,22.37
2017-07-18T11:34:08.995Z,22.46
2017-07-18T11:35:17.909Z,22.43
2017-07-18T11:36:27.448Z,22.52
2017-07-18T11:37:37.060Z,22.62
2017-07-18T11:38:46.954Z,22.68
2017-07-18T11:39:56.501Z,22.79
2017-07-18T11:41:06.039Z,22.77
2017-07-18T11:42:15.577Z,22.88
2017-07-18T11:43:25.422Z,22.94
2017-07-18T11:44:34.970Z,23.02
2017-07-18T11:45:44.182Z,23.04
2017-07-18T11:46:53.736Z,23.12
2017-07-18T11:48:02.624Z,23.12
2017-07-18T11:49:12.090Z,23.12
2017-07-18T11:50:21.024Z,23.16
2017-07-18T11:51:30.906Z,23.19
2017-07-18T11:52:40.444Z,23.25
2017-07-18T11:53:49.979Z,23.16
2017-07-18T11:54:59.397Z,23.04
2017-07-18T11:56:08.953Z,23.01
2017-07-18T11:57:17.843Z,23.2
2017-07-18T11:58:27.053Z,23.15
2017-07-18T11:59:36.936Z,23.46
2017-07-18T12:00:46.361Z,23.47
2017-07-18T12:01:56.249Z,23.57
2017-07-18T12:03:05.809Z,23.75
2017-07-18T12:04:15.036Z,23.85
2017-07-18T12:05:24.257Z,23.91
2017-07-18T12:06:33.945Z,23.93
2017-07-18T12:07:43.161Z,24.1
2017-07-18T12:08:52.058Z,24.16
2017-07-18T12:10:01.622Z,24.16
2017-07-18T12:11:11.498Z,24.32
2017-07-18T12:12:20.824Z,24.21
2017-07-18T12:13:30.377Z,24.12
2017-07-18T12:14:40.240Z,24.2
2017-07-18T12:15:49.137Z,24.05
2017-07-18T12:16:59.041Z,24.37
2017-07-18T12:18:08.416Z,24.27
2017-07-18T12:19:17.322Z,24.32
2017-07-18T12:20:26.870Z,24.45
2017-07-18T12:21:36.089Z,24.52
2017-07-18T12:22:45.647Z,24.65
2017-07-18T12:23:54.696Z,24.68
2017-07-18T12:25:03.918Z,24.71
2017-07-18T12:26:13.138Z,24.78
2017-07-18T12:27:23.011Z,24.84
2017-07-18T12:28:32.884Z,24.85
2017-07-18T12:29:42.580Z,24.99
2017-07-18T12:30:52.130Z,25.05
2017-07-18T12:32:01.027Z,25.1
2017-07-18T12:33:10.591Z,25.09
2017-07-18T12:34:19.517Z,25.2
2017-07-18T12:35:29.216Z,25.21
2017-07-18T12:36:38.778Z,25
2017-07-18T12:37:47.677Z,25.15
2017-07-18T12:38:57.880Z,25.13
2017-07-18T12:40:07.111Z,25.13
2017-07-18T12:41:16.811Z,25.24
2017-07-18T12:42:26.367Z,25.43
2017-07-18T12:43:35.594Z,25.43
2017-07-18T12:44:46.122Z,25.5
2017-07-18T12:45:55.671Z,25.67
2017-07-18T12:47:05.231Z,25.65
2017-07-18T12:48:14.463Z,25.65
2017-07-18T12:49:23.695Z,25.85
2017-07-18T12:50:33.583Z,25.92
2017-07-18T12:51:42.513Z,25.94
2017-07-18T12:52:51.561Z,25.9
2017-07-18T12:54:01.114Z,25.94
2017-07-18T12:55:10.346Z,25.94
2017-07-18T12:56:19.252Z,26.09
2017-07-18T12:57:28.479Z,26.07
2017-07-18T12:58:37.725Z,26.25
2017-07-18T12:59:46.967Z,26.35
2017-07-18T13:00:56.520Z,26.37
2017-07-18T13:02:06.738Z,26.33
2017-07-18T13:03:15.979Z,26.39
2017-07-18T13:04:25.547Z,26.45
2017-07-18T13:05:35.104Z,26.5
2017-07-18T13:06:44.338Z,26.48
2017-07-18T13:07:53.587Z,26.48
2017-07-18T13:09:02.822Z,26.65
2017-07-18T13:10:13.024Z,26.73
2017-07-18T13:11:23.224Z,26.8
2017-07-18T13:12:32.503Z,26.87
2017-07-18T13:13:42.059Z,26.91
2017-07-18T13:14:51.290Z,26.67
2017-07-18T13:16:01.491Z,26.67
2017-07-18T13:17:11.048Z,26.76
2017-07-18T13:18:20.579Z,26.7
2017-07-18T13:19:30.144Z,26.82
2017-07-18T13:20:39.375Z,26.77
2017-07-18T13:21:48.932Z,26.81
2017-07-18T13:22:58.814Z,26.99
2017-07-18T13:24:08.575Z,27.02
2017-07-18T13:25:18.448Z,27.22
2017-07-18T13:26:28.572Z,27.21
2017-07-18T13:27:37.805Z,27.18
2017-07-18T13:28:47.365Z,27.27
2017-07-18T13:29:56.744Z,27.24
2017-07-18T13:31:06.955Z,27.18
2017-07-18T13:32:16.229Z,26.95
2017-07-18T13:33:25.463Z,26.99
2017-07-18T13:34:34.697Z,26.99
2017-07-18T13:35:44.417Z,27.02
2017-07-18T13:36:54.326Z,27.14
2017-07-18T13:38:03.880Z,27.37
2017-07-18T13:39:13.441Z,27.47
2017-07-18T13:40:22.998Z,27.57
2017-07-18T13:41:32.280Z,27.49
2017-07-18T13:42:42.161Z,27.72
2017-07-18T13:43:51.393Z,27.54
2017-07-18T13:45:00.300Z,27.65
2017-07-18T13:46:09.529Z,27.43
2017-07-18T13:47:18.861Z,27.55
2017-07-18T13:48:28.097Z,27.78
2017-07-18T13:49:37.326Z,27.29
2017-07-18T13:50:46.879Z,27.63
2017-07-18T13:51:56.761Z,27.84
2017-07-18T13:53:06.366Z,28.02
2017-07-18T13:54:16.244Z,27.78
2017-07-18T13:55:25.805Z,27.78
2017-07-18T13:56:34.713Z,27.79
2017-07-18T13:57:43.622Z,27.96
2017-07-18T13:58:53.647Z,27.82
2017-07-18T14:00:03.849Z,28.03
2017-07-18T14:01:13.401Z,28.24
2017-07-18T14:02:22.636Z,28.41
2017-07-18T14:03:32.191Z,28.46
2017-07-18T14:04:41.571Z,28.64
2017-07-18T14:05:51.127Z,28.9
2017-07-18T14:07:00.365Z,28.92
2017-07-18T14:08:09.952Z,28.98
2017-07-18T14:09:18.863Z,29.14
2017-07-18T14:10:28.489Z,29.21
2017-07-18T14:11:37.725Z,29.15
2017-07-18T14:12:46.969Z,29.12
2017-07-18T14:13:56.201Z,29.27
2017-07-18T14:15:05.108Z,29.34
2017-07-18T14:16:14.398Z,29.36
2017-07-18T14:17:23.960Z,29.46
2017-07-18T14:18:32.870Z,29.65
2017-07-18T14:19:43.079Z,29.63
2017-07-18T14:20:52.631Z,29.68
2017-07-18T14:22:02.308Z,29.68
2017-07-18T14:23:11.550Z,29.27
2017-07-18T14:24:20.806Z,29.31
2017-07-18T14:25:30.420Z,29.42
2017-07-18T14:26:39.674Z,29.63
2017-07-18T14:27:49.169Z,29.3
2017-07-18T14:28:58.727Z,29.42
2017-07-18T14:30:08.293Z,29.64
2017-07-18T14:31:17.859Z,29.64
2017-07-18T14:32:27.421Z,29.43
2017-07-18T14:33:36.420Z,29.61
2017-07-18T14:34:45.345Z,29.94
2017-07-18T14:35:54.270Z,30.07
2017-07-18T14:37:04.161Z,30.05
2017-07-18T14:38:14.044Z,30.23
2017-07-18T14:39:24.457Z,30.47
2017-07-18T14:40:33.693Z,30.38
2017-07-18T14:41:43.308Z,30.38
2017-07-18T14:42:52.868Z,30.54
2017-07-18T14:44:02.430Z,30.49
2017-07-18T14:45:12.190Z,30.61
2017-07-18T14:46:21.430Z,30.38
2017-07-18T14:47:30.666Z,30.27
2017-07-18T14:48:39.587Z,30.23
2017-07-18T14:49:48.817Z,30.32
2017-07-18T14:50:59.002Z,30.35
2017-07-18T14:52:08.901Z,30.51
2017-07-18T14:53:18.139Z,30.55
2017-07-18T14:54:27.408Z,30.35
2017-07-18T14:55:36.968Z,30.16
2017-07-18T14:56:47.440Z,30.13
2017-07-18T14:57:57.005Z,30.22
2017-07-18T14:59:06.239Z,30.39